sensor_id;sensor_type;location;lat;lon;timestamp;P1;durP1;ratioP1;P2;durP2;ratioP2
39860;SDS011;25529;49.346;20.886;2022-08-25T14:52:45;31.83;;;10.75;;
39860;SDS011;25529;49.346;20.886;2022-08-25T14:55:11;31.25;;;10.15;;
39860;SDS011;25529;49.346;20.886;2022-08-25T14:57:37;32.17;;;10.48;;
39860;SDS011;25529;49.346;20.886;2022-08-25T15:00:02;33.95;;;10.20;;
39860;SDS011;25529;49.346;20.886;2022-08-25T15:02:28;32.88;;;10.70;;
39860;SDS011;25529;49.346;20.886;2022-08-25T15:04:56;32.25;;;10.73;;
39860;SDS011;25529;49.346;20.886;2022-08-25T15:07:45;30.05;;;11.02;;
39860;SDS011;25529;49.346;20.886;2022-08-25T15:10:29;32.58;;;10.80;;
39860;SDS011;25529;49.346;20.886;2022-08-25T15:12:54;30.88;;;10.73;;
39860;SDS011;25529;49.346;20.886;2022-08-25T15:15:22;32.28;;;11.02;;
39860;SDS011;25529;49.346;20.886;2022-08-25T15:17:50;30.27;;;11.15;;
39860;SDS011;25529;49.346;20.886;2022-08-25T15:20:16;33.38;;;11.80;;
39860;SDS011;25529;49.346;20.886;2022-08-25T15:22:51;32.10;;;10.70;;
39860;SDS011;25529;49.346;20.886;2022-08-25T15:25:57;31.25;;;11.25;;
39860;SDS011;25529;49.346;20.886;2022-08-25T15:28:33;34.05;;;11.10;;
39860;SDS011;25529;49.346;20.886;2022-08-25T15:30:58;35.38;;;10.88;;
39860;SDS011;25529;49.346;20.886;2022-08-25T15:33:24;34.80;;;10.98;;
39860;SDS011;25529;49.346;20.886;2022-08-25T15:35:49;31.17;;;10.55;;
39860;SDS011;25529;49.346;20.886;2022-08-25T15:38:14;27.98;;;11.18;;
39860;SDS011;25529;49.346;20.886;2022-08-25T15:40:40;26.65;;;10.23;;
39860;SDS011;25529;49.346;20.886;2022-08-25T15:43:05;29.27;;;10.07;;
39860;SDS011;25529;49.346;20.886;2022-08-25T15:45:31;34.35;;;11.38;;
39860;SDS011;25529;49.346;20.886;2022-08-25T15:47:57;30.80;;;10.57;;
39860;SDS011;25529;49.346;20.886;2022-08-25T15:50:22;27.52;;;10.50;;
39860;SDS011;25529;49.346;20.886;2022-08-25T15:52:48;30.20;;;10.07;;
39860;SDS011;25529;49.346;20.886;2022-08-25T15:55:18;38.45;;;11.82;;
39860;SDS011;25529;49.346;20.886;2022-08-25T15:57:49;33.53;;;10.50;;
39860;SDS011;25529;49.346;20.886;2022-08-25T16:00:14;31.55;;;10.70;;
39860;SDS011;25529;49.346;20.886;2022-08-25T16:02:40;36.15;;;10.48;;
39860;SDS011;25529;49.346;20.886;2022-08-25T16:05:06;32.85;;;11.10;;
39860;SDS011;25529;49.346;20.886;2022-08-25T16:07:32;38.47;;;10.95;;
39860;SDS011;25529;49.346;20.886;2022-08-25T16:09:57;31.92;;;10.90;;
39860;SDS011;25529;49.346;20.886;2022-08-25T16:12:23;32.75;;;9.98;;
39860;SDS011;25529;49.346;20.886;2022-08-25T16:14:49;26.67;;;9.75;;
39860;SDS011;25529;49.346;20.886;2022-08-25T16:17:17;30.02;;;9.82;;
39860;SDS011;25529;49.346;20.886;2022-08-25T16:19:43;34.17;;;9.77;;
39860;SDS011;25529;49.346;20.886;2022-08-25T16:22:11;31.00;;;9.50;;
39860;SDS011;25529;49.346;20.886;2022-08-25T16:24:37;23.33;;;9.77;;
39860;SDS011;25529;49.346;20.886;2022-08-25T16:27:04;28.48;;;10.38;;
39860;SDS011;25529;49.346;20.886;2022-08-25T16:29:34;27.80;;;9.57;;
39860;SDS011;25529;49.346;20.886;2022-08-25T16:32:03;27.88;;;9.48;;
39860;SDS011;25529;49.346;20.886;2022-08-25T16:34:35;27.33;;;10.15;;
39860;SDS011;25529;49.346;20.886;2022-08-25T16:37:01;30.17;;;9.10;;
39860;SDS011;25529;49.346;20.886;2022-08-25T16:39:28;24.00;;;8.73;;
39860;SDS011;25529;49.346;20.886;2022-08-25T16:41:53;32.42;;;9.55;;
39860;SDS011;25529;49.346;20.886;2022-08-25T16:44:19;28.50;;;9.20;;
39860;SDS011;25529;49.346;20.886;2022-08-25T16:46:45;29.40;;;9.70;;
39860;SDS011;25529;49.346;20.886;2022-08-25T16:49:11;29.10;;;9.40;;
39860;SDS011;25529;49.346;20.886;2022-08-25T16:51:37;25.45;;;9.07;;
39860;SDS011;25529;49.346;20.886;2022-08-25T16:54:03;31.90;;;9.30;;
39860;SDS011;25529;49.346;20.886;2022-08-25T16:56:47;23.40;;;8.10;;
39860;SDS011;25529;49.346;20.886;2022-08-25T16:59:12;30.45;;;9.68;;
39860;SDS011;25529;49.346;20.886;2022-08-25T17:01:39;23.95;;;8.65;;
39860;SDS011;25529;49.346;20.886;2022-08-25T17:04:05;29.35;;;8.68;;
39860;SDS011;25529;49.346;20.886;2022-08-25T17:06:41;23.77;;;8.95;;
39860;SDS011;25529;49.346;20.886;2022-08-25T17:09:08;23.60;;;8.43;;
39860;SDS011;25529;49.346;20.886;2022-08-25T17:11:34;27.10;;;8.80;;
39860;SDS011;25529;49.346;20.886;2022-08-25T17:14:02;26.20;;;8.65;;
39860;SDS011;25529;49.346;20.886;2022-08-25T17:16:29;28.33;;;9.15;;
39860;SDS011;25529;49.346;20.886;2022-08-25T17:18:56;26.27;;;8.95;;
39860;SDS011;25529;49.346;20.886;2022-08-25T17:21:22;25.33;;;8.32;;
39860;SDS011;25529;49.346;20.886;2022-08-25T17:23:50;25.23;;;8.40;;
39860;SDS011;25529;49.346;20.886;2022-08-25T17:26:16;25.00;;;9.43;;
39860;SDS011;25529;49.346;20.886;2022-08-25T17:28:41;25.38;;;10.73;;
39860;SDS011;25529;49.346;20.886;2022-08-25T17:31:10;26.52;;;10.77;;
39860;SDS011;25529;49.346;20.886;2022-08-25T17:33:36;31.13;;;10.95;;
39860;SDS011;25529;49.346;20.886;2022-08-25T17:36:02;30.23;;;10.95;;
39860;SDS011;25529;49.346;20.886;2022-08-25T17:38:28;26.30;;;9.77;;
39860;SDS011;25529;49.346;20.886;2022-08-25T17:40:57;30.55;;;9.80;;
39860;SDS011;25529;49.346;20.886;2022-08-25T17:43:24;26.13;;;10.43;;
39860;SDS011;25529;49.346;20.886;2022-08-25T17:45:49;26.52;;;10.15;;
39860;SDS011;25529;49.346;20.886;2022-08-25T17:48:15;27.48;;;9.73;;
39860;SDS011;25529;49.346;20.886;2022-08-25T17:50:50;24.58;;;9.13;;
39860;SDS011;25529;49.346;20.886;2022-08-25T17:53:33;26.90;;;8.95;;
39860;SDS011;25529;49.346;20.886;2022-08-25T17:56:12;29.45;;;9.18;;
39860;SDS011;25529;49.346;20.886;2022-08-25T17:58:49;27.23;;;10.13;;
39860;SDS011;25529;49.346;20.886;2022-08-25T18:01:36;25.25;;;9.75;;
39860;SDS011;25529;49.346;20.886;2022-08-25T18:04:02;28.55;;;9.98;;
39860;SDS011;25529;49.346;20.886;2022-08-25T18:06:29;27.40;;;11.50;;
39860;SDS011;25529;49.346;20.886;2022-08-25T18:08:55;26.35;;;12.00;;
39860;SDS011;25529;49.346;20.886;2022-08-25T18:11:21;30.27;;;11.60;;
39860;SDS011;25529;49.346;20.886;2022-08-25T18:13:49;25.77;;;10.35;;
39860;SDS011;25529;49.346;20.886;2022-08-25T18:16:18;27.92;;;11.00;;
39860;SDS011;25529;49.346;20.886;2022-08-25T18:18:44;26.95;;;10.35;;
39860;SDS011;25529;49.346;20.886;2022-08-25T18:21:11;24.23;;;10.13;;
39860;SDS011;25529;49.346;20.886;2022-08-25T18:23:36;27.00;;;10.30;;
39860;SDS011;25529;49.346;20.886;2022-08-25T18:26:02;29.35;;;10.38;;
39860;SDS011;25529;49.346;20.886;2022-08-25T18:28:28;28.13;;;10.25;;
39860;SDS011;25529;49.346;20.886;2022-08-25T18:30:53;23.80;;;9.93;;
39860;SDS011;25529;49.346;20.886;2022-08-25T18:33:19;26.67;;;9.73;;
39860;SDS011;25529;49.346;20.886;2022-08-25T18:35:44;27.77;;;10.75;;
39860;SDS011;25529;49.346;20.886;2022-08-25T18:38:10;25.38;;;10.48;;
39860;SDS011;25529;49.346;20.886;2022-08-25T18:40:55;23.60;;;10.50;;
39860;SDS011;25529;49.346;20.886;2022-08-25T18:43:20;24.45;;;10.02;;
39860;SDS011;25529;49.346;20.886;2022-08-25T18:45:46;27.40;;;10.13;;
39860;SDS011;25529;49.346;20.886;2022-08-25T18:48:15;27.02;;;10.07;;
39860;SDS011;25529;49.346;20.886;2022-08-25T18:50:40;23.83;;;9.85;;
39860;SDS011;25529;49.346;20.886;2022-08-25T18:53:07;26.58;;;10.30;;
39860;SDS011;25529;49.346;20.886;2022-08-25T18:55:33;25.02;;;10.52;;
39860;SDS011;25529;49.346;20.886;2022-08-25T18:57:58;24.13;;;10.73;;
39860;SDS011;25529;49.346;20.886;2022-08-25T19:00:25;25.95;;;10.60;;
39860;SDS011;25529;49.346;20.886;2022-08-25T19:02:51;27.73;;;10.07;;
39860;SDS011;25529;49.346;20.886;2022-08-25T19:05:18;27.45;;;10.63;;
39860;SDS011;25529;49.346;20.886;2022-08-25T19:07:44;30.42;;;12.10;;
39860;SDS011;25529;49.346;20.886;2022-08-25T19:10:10;26.50;;;11.35;;
39860;SDS011;25529;49.346;20.886;2022-08-25T19:12:35;27.45;;;11.52;;
39860;SDS011;25529;49.346;20.886;2022-08-25T19:15:01;29.02;;;11.30;;
39860;SDS011;25529;49.346;20.886;2022-08-25T19:17:26;26.73;;;10.90;;
39860;SDS011;25529;49.346;20.886;2022-08-25T19:19:51;26.50;;;11.32;;
39860;SDS011;25529;49.346;20.886;2022-08-25T19:22:17;27.83;;;10.88;;
39860;SDS011;25529;49.346;20.886;2022-08-25T19:24:42;30.05;;;11.20;;
39860;SDS011;25529;49.346;20.886;2022-08-25T19:27:14;33.20;;;10.88;;
39860;SDS011;25529;49.346;20.886;2022-08-25T19:29:52;28.17;;;11.50;;
39860;SDS011;25529;49.346;20.886;2022-08-25T19:32:17;27.38;;;11.10;;
39860;SDS011;25529;49.346;20.886;2022-08-25T19:34:43;31.00;;;11.45;;
39860;SDS011;25529;49.346;20.886;2022-08-25T19:37:10;24.02;;;10.07;;
39860;SDS011;25529;49.346;20.886;2022-08-25T19:39:37;31.63;;;10.55;;
39860;SDS011;25529;49.346;20.886;2022-08-25T19:42:03;29.38;;;10.50;;
39860;SDS011;25529;49.346;20.886;2022-08-25T19:44:28;29.20;;;10.63;;
39860;SDS011;25529;49.346;20.886;2022-08-25T19:46:54;28.45;;;10.10;;
39860;SDS011;25529;49.346;20.886;2022-08-25T19:49:21;31.80;;;10.40;;
39860;SDS011;25529;49.346;20.886;2022-08-25T19:51:48;32.55;;;10.55;;
39860;SDS011;25529;49.346;20.886;2022-08-25T19:54:16;30.85;;;10.05;;
39860;SDS011;25529;49.346;20.886;2022-08-25T19:56:44;32.38;;;9.75;;
39860;SDS011;25529;49.346;20.886;2022-08-25T19:59:11;32.92;;;10.13;;
39860;SDS011;25529;49.346;20.886;2022-08-25T20:01:36;27.20;;;10.35;;
39860;SDS011;25529;49.346;20.886;2022-08-25T20:04:02;31.67;;;12.10;;
39860;SDS011;25529;49.346;20.886;2022-08-25T20:06:28;33.58;;;12.55;;
39860;SDS011;25529;49.346;20.886;2022-08-25T20:08:55;28.92;;;11.98;;
39860;SDS011;25529;49.346;20.886;2022-08-25T20:11:21;31.48;;;11.88;;
39860;SDS011;25529;49.346;20.886;2022-08-25T20:13:47;29.80;;;10.82;;
39860;SDS011;25529;49.346;20.886;2022-08-25T20:16:12;28.17;;;11.35;;
39860;SDS011;25529;49.346;20.886;2022-08-25T20:18:38;31.45;;;10.98;;
39860;SDS011;25529;49.346;20.886;2022-08-25T20:21:03;29.88;;;10.63;;
39860;SDS011;25529;49.346;20.886;2022-08-25T20:23:29;27.15;;;10.70;;
39860;SDS011;25529;49.346;20.886;2022-08-25T20:26:13;31.92;;;10.48;;
39860;SDS011;25529;49.346;20.886;2022-08-25T20:28:38;29.23;;;10.18;;
39860;SDS011;25529;49.346;20.886;2022-08-25T20:31:03;29.42;;;10.55;;
39860;SDS011;25529;49.346;20.886;2022-08-25T20:33:29;27.42;;;9.93;;
39860;SDS011;25529;49.346;20.886;2022-08-25T20:35:54;30.42;;;10.75;;
39860;SDS011;25529;49.346;20.886;2022-08-25T20:38:19;30.02;;;10.50;;
39860;SDS011;25529;49.346;20.886;2022-08-25T20:40:45;29.85;;;10.68;;
39860;SDS011;25529;49.346;20.886;2022-08-25T20:43:11;26.48;;;10.20;;
39860;SDS011;25529;49.346;20.886;2022-08-25T20:45:36;30.65;;;10.88;;
39860;SDS011;25529;49.346;20.886;2022-08-25T20:48:02;26.08;;;10.02;;
39860;SDS011;25529;49.346;20.886;2022-08-25T20:50:27;29.33;;;10.05;;
39860;SDS011;25529;49.346;20.886;2022-08-25T20:52:52;31.15;;;10.73;;
39860;SDS011;25529;49.346;20.886;2022-08-25T20:55:20;29.08;;;10.05;;
39860;SDS011;25529;49.346;20.886;2022-08-25T20:57:46;29.38;;;10.50;;
39860;SDS011;25529;49.346;20.886;2022-08-25T21:00:12;26.83;;;9.68;;
39860;SDS011;25529;49.346;20.886;2022-08-25T21:02:38;33.80;;;10.15;;
39860;SDS011;25529;49.346;20.886;2022-08-25T21:05:03;30.10;;;10.07;;
39860;SDS011;25529;49.346;20.886;2022-08-25T21:07:29;25.95;;;10.27;;
39860;SDS011;25529;49.346;20.886;2022-08-25T21:09:54;27.75;;;9.57;;
39860;SDS011;25529;49.346;20.886;2022-08-25T21:12:19;32.22;;;11.05;;
39860;SDS011;25529;49.346;20.886;2022-08-25T21:14:45;29.38;;;10.43;;
39860;SDS011;25529;49.346;20.886;2022-08-25T21:17:10;30.27;;;10.50;;
39860;SDS011;25529;49.346;20.886;2022-08-25T21:19:36;32.70;;;10.98;;
39860;SDS011;25529;49.346;20.886;2022-08-25T21:22:05;28.20;;;11.05;;
39860;SDS011;25529;49.346;20.886;2022-08-25T21:24:31;28.45;;;10.05;;
39860;SDS011;25529;49.346;20.886;2022-08-25T21:26:56;29.73;;;11.65;;
39860;SDS011;25529;49.346;20.886;2022-08-25T21:29:24;28.10;;;10.55;;
39860;SDS011;25529;49.346;20.886;2022-08-25T21:31:49;26.95;;;10.73;;
39860;SDS011;25529;49.346;20.886;2022-08-25T21:34:15;30.13;;;10.15;;
39860;SDS011;25529;49.346;20.886;2022-08-25T21:36:41;28.25;;;10.00;;
39860;SDS011;25529;49.346;20.886;2022-08-25T21:39:07;28.75;;;10.10;;
39860;SDS011;25529;49.346;20.886;2022-08-25T21:41:33;29.48;;;10.75;;
39860;SDS011;25529;49.346;20.886;2022-08-25T21:44:02;26.08;;;10.50;;
39860;SDS011;25529;49.346;20.886;2022-08-25T21:46:29;30.55;;;11.35;;
39860;SDS011;25529;49.346;20.886;2022-08-25T21:48:55;27.25;;;10.48;;
39860;SDS011;25529;49.346;20.886;2022-08-25T21:51:23;26.08;;;10.52;;
39860;SDS011;25529;49.346;20.886;2022-08-25T21:53:49;29.58;;;10.13;;
39860;SDS011;25529;49.346;20.886;2022-08-25T21:56:17;30.80;;;10.55;;
39860;SDS011;25529;49.346;20.886;2022-08-25T21:58:43;25.25;;;10.15;;
39860;SDS011;25529;49.346;20.886;2022-08-25T22:01:10;28.88;;;10.55;;
39860;SDS011;25529;49.346;20.886;2022-08-25T22:03:36;28.20;;;9.57;;
39860;SDS011;25529;49.346;20.886;2022-08-25T22:06:02;24.63;;;9.18;;
39860;SDS011;25529;49.346;20.886;2022-08-25T22:08:28;31.70;;;10.77;;
39860;SDS011;25529;49.346;20.886;2022-08-25T22:10:54;35.95;;;10.52;;
39860;SDS011;25529;49.346;20.886;2022-08-25T22:13:19;24.13;;;9.63;;
39860;SDS011;25529;49.346;20.886;2022-08-25T22:15:44;25.42;;;9.10;;
39860;SDS011;25529;49.346;20.886;2022-08-25T22:21:20;24.73;;;8.57;;
39860;SDS011;25529;49.346;20.886;2022-08-25T22:23:46;23.52;;;8.38;;
39860;SDS011;25529;49.346;20.886;2022-08-25T22:26:11;24.33;;;8.65;;
39860;SDS011;25529;49.346;20.886;2022-08-25T22:28:40;27.08;;;8.43;;
39860;SDS011;25529;49.346;20.886;2022-08-25T22:31:05;29.95;;;8.50;;
39860;SDS011;25529;49.346;20.886;2022-08-25T22:33:31;22.88;;;8.23;;
39860;SDS011;25529;49.346;20.886;2022-08-25T22:35:56;26.13;;;8.45;;
39860;SDS011;25529;49.346;20.886;2022-08-25T22:38:21;25.42;;;8.90;;
39860;SDS011;25529;49.346;20.886;2022-08-25T22:40:47;24.88;;;8.57;;
39860;SDS011;25529;49.346;20.886;2022-08-25T22:43:12;24.90;;;8.80;;
39860;SDS011;25529;49.346;20.886;2022-08-25T22:45:37;22.95;;;8.30;;
39860;SDS011;25529;49.346;20.886;2022-08-25T22:48:03;25.73;;;8.70;;
39860;SDS011;25529;49.346;20.886;2022-08-25T22:50:35;26.10;;;8.50;;
39860;SDS011;25529;49.346;20.886;2022-08-25T22:53:00;26.48;;;8.73;;
39860;SDS011;25529;49.346;20.886;2022-08-25T22:55:25;22.13;;;8.52;;
39860;SDS011;25529;49.346;20.886;2022-08-25T22:57:51;24.23;;;7.97;;
39860;SDS011;25529;49.346;20.886;2022-08-25T23:00:19;28.70;;;8.90;;
39860;SDS011;25529;49.346;20.886;2022-08-25T23:02:45;22.98;;;8.23;;
39860;SDS011;25529;49.346;20.886;2022-08-25T23:05:12;38.10;;;8.30;;
39860;SDS011;25529;49.346;20.886;2022-08-25T23:07:38;25.77;;;8.55;;
39860;SDS011;25529;49.346;20.886;2022-08-25T23:10:05;27.65;;;8.38;;
39860;SDS011;25529;49.346;20.886;2022-08-25T23:12:32;26.40;;;8.60;;
39860;SDS011;25529;49.346;20.886;2022-08-25T23:14:57;24.75;;;8.75;;
39860;SDS011;25529;49.346;20.886;2022-08-25T23:17:23;30.02;;;8.80;;
39860;SDS011;25529;49.346;20.886;2022-08-25T23:19:48;28.88;;;8.55;;
39860;SDS011;25529;49.346;20.886;2022-08-25T23:22:14;22.27;;;8.82;;
39860;SDS011;25529;49.346;20.886;2022-08-25T23:24:45;26.08;;;7.85;;
39860;SDS011;25529;49.346;20.886;2022-08-25T23:27:13;26.83;;;8.43;;
39860;SDS011;25529;49.346;20.886;2022-08-25T23:29:40;24.00;;;8.00;;
39860;SDS011;25529;49.346;20.886;2022-08-25T23:32:06;26.00;;;8.82;;
39860;SDS011;25529;49.346;20.886;2022-08-25T23:34:35;20.15;;;7.57;;
39860;SDS011;25529;49.346;20.886;2022-08-25T23:37:01;22.40;;;8.20;;
39860;SDS011;25529;49.346;20.886;2022-08-25T23:39:27;22.15;;;8.02;;
39860;SDS011;25529;49.346;20.886;2022-08-25T23:41:52;24.55;;;8.43;;
39860;SDS011;25529;49.346;20.886;2022-08-25T23:44:28;28.00;;;8.13;;
39860;SDS011;25529;49.346;20.886;2022-08-25T23:46:56;21.05;;;7.60;;
39860;SDS011;25529;49.346;20.886;2022-08-25T23:49:22;23.10;;;7.75;;
39860;SDS011;25529;49.346;20.886;2022-08-25T23:51:50;25.98;;;8.52;;
39860;SDS011;25529;49.346;20.886;2022-08-25T23:54:16;23.02;;;7.70;;
39860;SDS011;25529;49.346;20.886;2022-08-25T23:56:42;24.52;;;8.07;;
39860;SDS011;25529;49.346;20.886;2022-08-25T23:59:08;28.75;;;8.70;;
